Time;durP1;ratioP1;P1;durP2;ratioP2;P2;SDS_P1;SDS_P2;PMS_P1;PMS_P2;Temp;Humidity;BMP_temperature;BMP_pressure;BME280_temperature;BME280_humidity;BME280_pressure;Samples;Min_cycle;Max_cycle;Signal;HPM_P1;HPM_P2
2023/08/03 00:01:47;;;;;;;11.30;2.05;;;;;;;-142.75;100.00;73925.53;5067060;28;20016;-65
2023/08/03 00:04:13;;;;;;;5.05;1.05;;;;;;;-142.75;100.00;73958.97;5067163;28;20101;-66
2023/08/03 00:06:38;;;;;;;1.88;0.80;;;;;;;-142.75;100.00;73953.06;5067359;28;20497;-66
2023/08/03 00:09:03;;;;;;;7.43;1.02;;;;;;;-142.75;100.00;73957.00;5067105;28;20480;-65
2023/08/03 00:11:29;;;;;;;4.70;1.40;;;;;;;-142.75;100.00;73966.84;5066921;28;20028;-66
2023/08/03 00:13:54;;;;;;;6.55;1.38;;;;;;;-142.75;100.00;73957.00;5067146;28;20033;-65
2023/08/03 00:16:19;;;;;;;12.38;1.50;;;;;;;-142.75;100.00;73949.13;5067282;28;20028;-66
2023/08/03 00:18:45;;;;;;;4.78;1.08;;;;;;;-142.75;100.00;73958.97;5067927;28;20024;-66
2023/08/03 00:21:10;;;;;;;5.43;1.00;;;;;;;-142.75;100.00;73964.88;5066848;28;20037;-66
2023/08/03 00:23:35;;;;;;;3.67;1.02;;;;;;;-142.75;100.00;73968.81;5066830;28;20040;-65
2023/08/03 00:26:01;;;;;;;4.22;1.20;;;;;;;-142.75;100.00;73958.97;5067154;28;20020;-65
2023/08/03 00:28:26;;;;;;;7.28;1.20;;;;;;;-142.75;100.00;73953.06;5067261;28;20031;-63
2023/08/03 00:30:51;;;;;;;6.88;1.50;;;;;;;-142.75;100.00;73968.81;5073956;28;20051;-65
2023/08/03 00:33:17;;;;;;;6.60;1.48;;;;;;;-142.75;100.00;73970.78;5086651;28;20471;-66
2023/08/03 00:35:42;;;;;;;9.60;1.85;;;;;;;-142.75;100.00;73972.75;5087161;28;20407;-65
2023/08/03 00:38:07;;;;;;;10.35;1.60;;;;;;;-142.75;100.00;73978.66;5086944;28;20057;-65
2023/08/03 00:40:33;;;;;;;8.30;1.90;;;;;;;-142.75;100.00;73970.78;5086813;28;20201;-65
2023/08/03 00:42:59;;;;;;;8.00;2.00;;;;;;;-142.75;100.00;73960.94;5086615;28;20028;-66
2023/08/03 00:45:24;;;;;;;11.57;1.70;;;;;;;-142.75;100.00;73972.75;5091089;28;20020;-66
2023/08/03 00:47:49;;;;;;;11.13;2.33;;;;;;;-142.75;100.00;73972.75;5091826;28;20024;-65
2023/08/03 00:50:15;;;;;;;6.22;1.73;;;;;;;-142.75;100.00;73960.94;5089573;28;20060;-66
2023/08/03 00:52:40;;;;;;;7.90;1.77;;;;;;;-142.75;100.00;73976.69;5090451;28;20016;-66
2023/08/03 00:55:06;;;;;;;7.72;2.13;;;;;;;-142.75;100.00;73982.59;5090929;28;20395;-65
2023/08/03 00:57:31;;;;;;;11.10;2.25;;;;;;;-142.75;100.00;73982.59;5090787;28;20032;-65
2023/08/03 00:59:57;;;;;;;9.90;2.00;;;;;;;-142.75;100.00;73972.75;5090982;28;20068;-65
2023/08/03 01:02:22;;;;;;;9.73;1.63;;;;;;;-142.75;100.00;73968.81;5090847;28;20028;-66
2023/08/03 01:04:48;;;;;;;9.13;2.40;;;;;;;-142.75;100.00;73964.88;5090881;28;20032;-65
2023/08/03 01:07:14;;;;;;;7.45;1.80;;;;;;;-142.75;100.00;73984.56;5090613;28;20518;-65
2023/08/03 01:09:39;;;;;;;11.52;2.30;;;;;;;-142.75;100.00;73990.44;5090522;28;20036;-65
2023/08/03 01:12:05;;;;;;;4.90;1.77;;;;;;;-142.75;100.00;73996.34;5090345;28;20023;-65
2023/08/03 01:14:30;;;;;;;9.88;2.08;;;;;;;-142.75;100.00;73992.41;5090640;28;20031;-66
2023/08/03 01:16:56;;;;;;;11.38;2.50;;;;;;;-142.75;100.00;73998.31;5090566;28;20590;-66
2023/08/03 01:19:22;;;;;;;7.88;2.50;;;;;;;-142.75;100.00;74006.19;5091065;28;20513;-66
2023/08/03 01:21:48;;;;;;;6.78;1.95;;;;;;;-142.75;100.00;74014.06;5090021;28;20028;-65
2023/08/03 01:24:13;;;;;;;12.82;2.28;;;;;;;-142.75;100.00;74018.00;5090415;28;20046;-66
2023/08/03 01:26:40;;;;;;;10.45;1.98;;;;;;;-142.75;100.00;74006.19;5090089;28;20504;-66
2023/08/03 01:29:05;;;;;;;11.52;2.80;;;;;;;-142.75;100.00;74018.00;5089821;28;20496;-66
2023/08/03 01:31:31;;;;;;;10.20;2.13;;;;;;;-142.75;100.00;74006.19;5089932;28;20073;-66
2023/08/03 01:33:57;;;;;;;11.75;1.98;;;;;;;-142.75;100.00;74004.22;5090301;28;20032;-65
2023/08/03 01:36:22;;;;;;;11.13;2.60;;;;;;;-142.75;100.00;73994.38;5090402;28;20046;-65
2023/08/03 01:38:55;;;;;;;7.10;2.38;;;;;;;-142.75;100.00;73988.50;5090195;28;20035;-66
2023/08/03 01:41:23;;;;;;;7.57;1.90;;;;;;;-142.75;100.00;74029.78;5089892;28;20050;-65
2023/08/03 01:44:21;;;;;;;5.80;1.63;;;;;;;-142.75;100.00;74000.28;5089998;28;20040;-66
2023/08/03 01:46:47;;;;;;;12.07;2.17;;;;;;;-142.75;100.00;74016.03;5090042;28;20020;-65
2023/08/03 01:49:12;;;;;;;7.68;1.77;;;;;;;-142.75;100.00;73998.31;5090645;28;20020;-66
2023/08/03 01:51:40;;;;;;;7.50;1.83;;;;;;;-142.75;100.00;74010.13;5089401;28;20411;-66
2023/08/03 01:54:05;;;;;;;9.02;2.40;;;;;;;-142.75;100.00;74019.97;5089703;28;20019;-65
2023/08/03 01:56:30;;;;;;;9.07;1.95;;;;;;;-142.75;100.00;74008.16;5089571;28;20399;-66
2023/08/03 01:58:57;;;;;;;5.97;1.67;;;;;;;-142.75;100.00;73996.34;5088301;28;20468;-66
2023/08/03 02:01:22;;;;;;;7.82;1.60;;;;;;;-142.75;100.00;74012.09;5089396;28;20028;-65
2023/08/03 02:03:48;;;;;;;8.02;1.70;;;;;;;-142.75;100.00;74004.22;5089675;28;20026;-66
2023/08/03 02:06:13;;;;;;;7.63;1.88;;;;;;;-142.75;100.00;74008.16;5089685;28;22079;-66
2023/08/03 02:08:38;;;;;;;6.25;1.80;;;;;;;-142.75;100.00;74000.28;5089431;28;20020;-66
2023/08/03 02:11:03;;;;;;;4.32;1.30;;;;;;;-142.75;100.00;74012.09;5089593;28;20020;-66
2023/08/03 02:13:29;;;;;;;4.18;1.40;;;;;;;-142.75;100.00;74000.28;5071178;28;20498;-66
2023/08/03 02:15:54;;;;;;;3.95;1.63;;;;;;;-142.75;100.00;74004.22;5069332;28;20072;-66
2023/08/03 02:18:19;;;;;;;6.47;1.60;;;;;;;-142.75;100.00;74004.22;5069615;28;20492;-66
2023/08/03 02:20:45;;;;;;;7.60;2.25;;;;;;;-142.75;100.00;74014.06;5069183;28;20454;-66
2023/08/03 02:23:10;;;;;;;6.72;1.60;;;;;;;-142.75;100.00;74019.97;5068930;28;20035;-66
2023/08/03 02:25:36;;;;;;;7.05;1.75;;;;;;;-142.75;100.00;74023.91;5069044;28;20032;-66
2023/08/03 02:28:01;;;;;;;3.83;1.50;;;;;;;-142.75;100.00;74029.78;5069637;28;20400;-66
2023/08/03 02:30:27;;;;;;;3.70;1.13;;;;;;;-142.75;100.00;74035.69;5069103;28;20025;-66
2023/08/03 02:32:52;;;;;;;4.00;1.00;;;;;;;-142.75;100.00;74023.91;5067351;28;20031;-66
2023/08/03 02:35:18;;;;;;;2.65;0.93;;;;;;;-142.75;100.00;74037.66;5068757;28;20105;-66
2023/08/03 02:37:43;;;;;;;3.63;1.02;;;;;;;-142.75;100.00;74037.66;5068675;28;20052;-66
2023/08/03 02:40:08;;;;;;;4.45;1.48;;;;;;;-142.75;100.00;74021.94;5068604;28;20129;-65
2023/08/03 02:42:36;;;;;;;3.50;0.90;;;;;;;-142.75;100.00;74016.03;5068470;28;20117;-66
2023/08/03 02:45:01;;;;;;;4.13;1.08;;;;;;;-142.75;100.00;74023.91;5068733;28;20055;-65
2023/08/03 02:47:27;;;;;;;4.03;1.10;;;;;;;-142.75;100.00;74031.75;5069023;28;20492;-66
2023/08/03 02:49:52;;;;;;;7.50;1.17;;;;;;;-142.75;100.00;74027.84;5069207;28;20020;-66
2023/08/03 02:52:18;;;;;;;6.60;1.30;;;;;;;-142.75;100.00;74037.66;5068151;28;20025;-66
2023/08/03 02:54:43;;;;;;;5.55;1.42;;;;;;;-142.75;100.00;74031.75;5068478;28;20021;-66
2023/08/03 02:57:08;;;;;;;6.55;1.13;;;;;;;-142.75;100.00;74037.66;5068449;28;20036;-66
2023/08/03 02:59:34;;;;;;;6.63;1.80;;;;;;;-142.75;100.00;74041.59;5068470;28;20028;-65
2023/08/03 03:01:59;;;;;;;7.15;1.48;;;;;;;-142.75;100.00;74039.63;5067555;28;20392;-66
2023/08/03 03:04:24;;;;;;;5.03;1.40;;;;;;;-142.75;100.00;74037.66;5068470;28;20024;-66
2023/08/03 03:06:50;;;;;;;7.15;1.50;;;;;;;-142.75;100.00;74045.53;5067638;28;20025;-66
2023/08/03 03:09:15;;;;;;;7.30;1.33;;;;;;;-142.75;100.00;74059.31;5079307;28;20020;-66
2023/08/03 03:11:40;;;;;;;4.68;1.50;;;;;;;-142.75;100.00;74063.25;5088096;28;20040;-66
2023/08/03 03:14:06;;;;;;;7.85;1.65;;;;;;;-142.75;100.00;74061.28;5088349;28;20031;-66
2023/08/03 03:16:31;;;;;;;10.63;2.10;;;;;;;-142.75;100.00;74078.97;5087952;28;20032;-65
2023/08/03 03:18:56;;;;;;;9.43;1.70;;;;;;;-142.75;100.00;74078.97;5089243;28;20062;-65
2023/08/03 03:21:22;;;;;;;8.95;1.65;;;;;;;-142.75;100.00;74094.72;5088011;28;20030;-65
2023/08/03 03:23:47;;;;;;;2.97;1.50;;;;;;;-142.75;100.00;74071.09;5087019;28;20110;-66
2023/08/03 03:26:13;;;;;;;9.05;1.55;;;;;;;-142.75;100.00;74086.84;5088039;28;20020;-66
2023/08/03 03:28:38;;;;;;;5.85;1.60;;;;;;;-142.75;100.00;74090.78;5087982;28;20028;-66
2023/08/03 03:31:03;;;;;;;4.13;1.45;;;;;;;-142.75;100.00;74086.84;5087392;28;20081;-66
2023/08/03 03:33:29;;;;;;;6.68;1.63;;;;;;;-142.75;100.00;74078.97;5087633;28;20036;-66
2023/08/03 03:35:54;;;;;;;6.03;1.55;;;;;;;-142.75;100.00;74104.56;5087889;28;20077;-66
2023/08/03 03:38:19;;;;;;;11.63;1.90;;;;;;;-142.75;100.00;74104.56;5087775;28;20035;-66
2023/08/03 03:40:45;;;;;;;9.63;1.70;;;;;;;-142.75;100.00;74138.00;5087356;28;20147;-66
2023/08/03 03:43:10;;;;;;;10.02;1.60;;;;;;;-142.75;100.00;74134.06;5087465;28;20015;-66
2023/08/03 03:45:35;;;;;;;8.50;1.38;;;;;;;-142.75;100.00;74147.84;5087551;28;20028;-66
2023/08/03 03:48:01;;;;;;;5.78;1.38;;;;;;;-142.75;100.00;74149.81;5087019;28;20114;-66
2023/08/03 03:50:26;;;;;;;7.50;1.40;;;;;;;-142.75;100.00;74173.41;5087478;28;20038;-66
2023/08/03 03:52:52;;;;;;;7.97;1.38;;;;;;;-142.75;100.00;74165.53;5087508;28;20106;-66
2023/08/03 03:55:17;;;;;;;4.70;1.02;;;;;;;-142.75;100.00;74155.69;5087649;28;20016;-66
2023/08/03 03:57:42;;;;;;;9.38;1.35;;;;;;;-142.75;100.00;74173.41;5087123;28;20089;-66
2023/08/03 04:00:08;;;;;;;3.65;0.80;;;;;;;-142.75;100.00;74175.38;5086198;28;20015;-67
2023/08/03 04:02:34;;;;;;;8.63;0.77;;;;;;;-142.75;100.00;74179.31;5086933;28;20039;-67
2023/08/03 04:04:59;;;;;;;6.13;1.30;;;;;;;-142.75;100.00;74177.34;5087500;28;20020;-66
2023/08/03 04:07:24;;;;;;;3.05;1.05;;;;;;;-142.75;100.00;74185.22;5087332;28;20023;-66
2023/08/03 04:09:50;;;;;;;2.80;0.88;;;;;;;-142.75;100.00;74193.09;5087419;28;20020;-66
2023/08/03 04:12:16;;;;;;;4.80;1.08;;;;;;;-142.75;100.00;74202.91;5086934;28;20422;-66
2023/08/03 04:14:41;;;;;;;9.25;1.40;;;;;;;-142.75;100.00;74187.19;5087193;28;20511;-66
2023/08/03 04:17:06;;;;;;;4.43;1.00;;;;;;;-142.75;100.00;74191.13;5087283;28;20035;-67
2023/08/03 04:19:31;;;;;;;6.53;1.23;;;;;;;-142.75;100.00;74204.88;5087076;28;20024;-65
2023/08/03 04:21:57;;;;;;;11.48;1.65;;;;;;;-142.75;100.00;74214.72;5086858;28;20086;-67
2023/08/03 04:24:22;;;;;;;8.18;1.75;;;;;;;-142.75;100.00;74200.94;5087381;28;20887;-66
2023/08/03 04:26:47;;;;;;;11.80;1.48;;;;;;;-142.75;100.00;74204.88;5086755;28;20024;-66
2023/08/03 04:29:13;;;;;;;8.93;1.73;;;;;;;-142.75;100.00;74212.75;5087002;28;20031;-66
2023/08/03 04:31:38;;;;;;;13.25;2.05;;;;;;;-142.75;100.00;74222.59;5086820;28;20032;-65
2023/08/03 04:34:03;;;;;;;10.27;2.28;;;;;;;-142.75;100.00;74226.53;5087084;28;20024;-66
2023/08/03 04:36:29;;;;;;;14.05;2.13;;;;;;;-142.75;100.00;74212.75;5086791;28;20035;-66
2023/08/03 04:38:54;;;;;;;13.38;2.45;;;;;;;-142.75;100.00;74218.66;5087178;28;20039;-66
2023/08/03 04:41:20;;;;;;;8.38;1.65;;;;;;;-142.75;100.00;74220.63;5086599;28;20110;-66
2023/08/03 04:43:46;;;;;;;13.15;2.20;;;;;;;-142.75;100.00;74208.81;5086742;28;20024;-66
2023/08/03 04:46:11;;;;;;;8.30;2.00;;;;;;;-142.75;100.00;74220.63;5086716;28;20530;-66
2023/08/03 04:48:36;;;;;;;12.05;2.38;;;;;;;-142.75;100.00;74216.69;5087960;28;20391;-65
2023/08/03 04:51:02;;;;;;;10.98;2.28;;;;;;;-142.75;100.00;74228.50;5086737;28;20493;-65
2023/08/03 04:53:27;;;;;;;12.18;1.67;;;;;;;-142.75;100.00;74244.22;5086352;28;20085;-65
2023/08/03 04:55:53;;;;;;;8.73;2.60;;;;;;;-142.75;100.00;74252.09;5086858;28;20020;-65
2023/08/03 04:58:18;;;;;;;11.93;1.67;;;;;;;-142.75;100.00;74244.22;5073415;28;20051;-66
2023/08/03 05:00:43;;;;;;;7.30;1.73;;;;;;;-142.75;100.00;74267.84;5066650;28;20027;-66
2023/08/03 05:03:09;;;;;;;9.18;1.48;;;;;;;-142.75;100.00;74254.06;5066287;28;20095;-65
2023/08/03 05:05:34;;;;;;;9.27;1.58;;;;;;;-142.75;100.00;74269.81;5066832;28;20074;-65
2023/08/03 05:07:59;;;;;;;9.68;1.60;;;;;;;-142.75;100.00;74275.72;5067052;28;20446;-65
2023/08/03 05:10:25;;;;;;;15.65;2.13;;;;;;;-142.75;100.00;74259.97;5066660;28;20670;-66
2023/08/03 05:12:50;;;;;;;11.25;2.17;;;;;;;-142.75;100.00;74267.84;5066120;28;20024;-65
2023/08/03 05:15:15;;;;;;;9.55;1.75;;;;;;;-142.75;100.00;74287.50;5066409;28;20380;-66
2023/08/03 05:17:41;;;;;;;7.68;1.48;;;;;;;-142.75;100.00;74271.78;5065357;28;20028;-66
2023/08/03 05:20:07;;;;;;;12.88;2.13;;;;;;;-142.75;100.00;74283.56;5067038;28;20395;-66
2023/08/03 05:22:32;;;;;;;6.20;1.85;;;;;;;-142.75;100.00;74277.69;5066009;28;20108;-65
2023/08/03 05:24:58;;;;;;;11.38;1.88;;;;;;;-142.75;100.00;74293.41;5066630;28;20051;-66
2023/08/03 05:27:23;;;;;;;7.45;1.58;;;;;;;-142.75;100.00;74291.44;5066582;28;20116;-65
2023/08/03 05:29:49;;;;;;;11.73;1.80;;;;;;;-142.75;100.00;74271.78;5067491;28;20090;-66
2023/08/03 05:32:14;;;;;;;11.00;1.70;;;;;;;-142.75;100.00;74293.41;5069811;28;20021;-66
2023/08/03 05:34:40;;;;;;;9.45;1.55;;;;;;;-142.75;100.00;74303.25;5070202;28;20369;-65
2023/08/03 05:37:05;;;;;;;5.28;1.13;;;;;;;-142.75;100.00;74291.44;5070045;28;20392;-65
2023/08/03 05:39:31;;;;;;;8.55;1.60;;;;;;;-142.75;100.00;74291.44;5069966;28;20510;-65
2023/08/03 05:41:56;;;;;;;6.00;1.23;;;;;;;-142.75;100.00;74311.13;5069599;28;20035;-66
2023/08/03 05:44:22;;;;;;;4.60;1.00;;;;;;;-142.75;100.00;74295.38;5069992;28;20028;-65
2023/08/03 05:46:47;;;;;;;7.55;1.23;;;;;;;-142.75;100.00;74299.31;5069819;28;20024;-65
2023/08/03 05:49:13;;;;;;;6.75;1.50;;;;;;;-142.75;100.00;74291.44;5070005;28;20068;-65
2023/08/03 05:51:42;;;;;;;13.27;1.52;;;;;;;-142.75;100.00;74309.16;5069281;28;20048;-65
2023/08/03 05:54:14;;;;;;;7.88;1.52;;;;;;;-142.75;100.00;74307.19;5069721;28;20043;-65
2023/08/03 05:56:40;;;;;;;7.47;1.00;;;;;;;-142.75;100.00;74311.13;5069446;28;20024;-65
2023/08/03 05:59:17;;;;;;;6.82;1.30;;;;;;;-142.75;100.00;74303.25;5069164;28;20101;-65
2023/08/03 06:01:42;;;;;;;5.43;1.38;;;;;;;-142.75;100.00;74299.31;5068542;28;20043;-66
2023/08/03 06:04:10;;;;;;;6.85;1.67;;;;;;;-142.75;100.00;74299.31;5069042;28;20498;-65
2023/08/03 06:06:36;;;;;;;11.05;2.00;;;;;;;-142.75;100.00;74295.38;5068847;28;20043;-65
2023/08/03 06:09:02;;;;;;;6.07;1.30;;;;;;;-142.75;100.00;74311.13;5068851;28;20032;-65
2023/08/03 06:11:27;;;;;;;9.27;1.98;;;;;;;-142.75;100.00;74295.38;5068242;28;20555;-64
2023/08/03 06:13:52;;;;;;;12.13;2.17;;;;;;;-142.75;100.00;74291.44;5067606;28;20031;-66
2023/08/03 06:16:18;;;;;;;12.55;2.33;;;;;;;-142.75;100.00;74293.41;5067341;28;20021;-65
2023/08/03 06:18:59;;;;;;;13.57;2.58;;;;;;;-142.75;100.00;74291.44;5069609;28;20553;-65
2023/08/03 06:21:26;;;;;;;9.68;2.03;;;;;;;-142.75;100.00;74303.25;5067775;28;20096;-65
2023/08/03 06:23:59;;;;;;;11.40;2.35;;;;;;;-142.75;100.00;74295.38;5067987;28;20050;-66
2023/08/03 06:26:30;;;;;;;14.27;2.30;;;;;;;-142.75;100.00;74287.50;5068427;28;20111;-65
2023/08/03 06:28:56;;;;;;;14.15;2.33;;;;;;;-142.75;100.00;74287.50;5068034;28;20035;-66
2023/08/03 06:31:33;;;;;;;12.48;2.65;;;;;;;-142.75;100.00;74281.59;5069324;28;20024;-66
2023/08/03 06:33:59;;;;;;;13.77;1.85;;;;;;;-142.75;100.00;74287.50;5068198;28;20155;-65
2023/08/03 06:36:26;;;;;;;10.25;2.42;;;;;;;-142.75;100.00;74279.66;5068232;28;20426;-66
2023/08/03 06:38:51;;;;;;;13.57;2.63;;;;;;;-142.75;100.00;74279.66;5068178;28;20035;-65
2023/08/03 06:41:17;;;;;;;10.70;2.70;;;;;;;-142.75;100.00;74271.78;5066660;28;20036;-65
2023/08/03 06:43:44;;;;;;;10.57;2.05;;;;;;;-142.75;100.00;74271.78;5067882;28;20025;-66
2023/08/03 06:46:09;;;;;;;13.48;2.42;;;;;;;-142.75;100.00;74283.56;5068043;28;20013;-65
2023/08/03 06:48:35;;;;;;;13.07;2.92;;;;;;;-142.75;100.00;74287.50;5068576;28;20031;-65
2023/08/03 06:51:02;;;;;;;15.82;2.88;;;;;;;-142.75;100.00;74283.56;5067923;28;20503;-65
2023/08/03 06:53:28;;;;;;;17.15;3.03;;;;;;;-142.75;100.00;74273.75;5086499;28;20073;-64
2023/08/03 06:55:53;;;;;;;12.35;2.63;;;;;;;-142.75;100.00;74303.25;5087932;28;20111;-65
2023/08/03 06:58:19;;;;;;;14.85;2.47;;;;;;;-142.75;100.00;74297.34;5087867;28;20149;-64
2023/08/03 07:00:45;;;;;;;14.75;2.70;;;;;;;-142.75;100.00;74289.47;5088082;28;20036;-65
2023/08/03 07:03:11;;;;;;;11.32;2.30;;;;;;;-142.75;100.00;74295.38;5087510;28;20035;-65
2023/08/03 07:05:37;;;;;;;16.27;3.35;;;;;;;-142.75;100.00;74301.28;5087753;28;20036;-66
2023/08/03 07:08:03;;;;;;;12.02;2.33;;;;;;;-142.75;100.00;74303.25;5087592;28;20103;-66
2023/08/03 07:10:29;;;;;;;14.40;2.20;;;;;;;-142.75;100.00;74322.94;5087629;28;20162;-66
2023/08/03 07:12:54;;;;;;;11.18;2.28;;;;;;;-142.75;100.00;74326.84;5087632;28;20101;-66
2023/08/03 07:15:20;;;;;;;9.68;2.13;;;;;;;-142.75;100.00;74330.78;5087549;28;20047;-66
2023/08/03 07:17:46;;;;;;;5.80;2.00;;;;;;;-142.75;100.00;74326.84;5087713;28;20107;-66
2023/08/03 07:20:12;;;;;;;7.35;1.83;;;;;;;-142.75;100.00;74346.53;5088400;28;20058;-66
2023/08/03 07:22:37;;;;;;;11.73;2.05;;;;;;;-142.75;100.00;74346.53;5087097;28;20510;-66
2023/08/03 07:25:06;;;;;;;11.70;2.00;;;;;;;-142.75;100.00;74340.63;5087352;28;20118;-66
2023/08/03 07:27:32;;;;;;;11.45;2.33;;;;;;;-142.75;100.00;74340.63;5087220;28;20016;-66
2023/08/03 07:29:57;;;;;;;12.43;2.33;;;;;;;-142.75;100.00;74342.59;5076904;28;20062;-66
2023/08/03 07:32:23;;;;;;;9.23;1.30;;;;;;;-142.75;100.00;74340.63;5068902;28;20109;-65
2023/08/03 07:34:48;;;;;;;5.43;1.83;;;;;;;-142.75;100.00;74344.56;5068223;28;20028;-65
2023/08/03 07:37:14;;;;;;;6.55;1.98;;;;;;;-142.75;100.00;74366.22;5069546;28;20548;-66
2023/08/03 07:39:39;;;;;;;5.60;2.00;;;;;;;-142.75;100.00;74366.22;5071627;28;20034;-65
2023/08/03 07:42:05;;;;;;;12.48;1.67;;;;;;;-142.75;100.00;74370.16;5084566;28;20012;-66
2023/08/03 07:44:31;;;;;;;7.93;1.75;;;;;;;-142.75;100.00;74374.06;5074608;28;20073;-66
2023/08/03 07:46:56;;;;;;;10.15;1.63;;;;;;;-142.75;100.00;74383.91;5083189;28;20020;-65
2023/08/03 07:49:21;;;;;;;8.30;1.42;;;;;;;-142.75;100.00;74399.66;5081809;28;20051;-67
2023/08/03 07:51:50;;;;;;;7.53;1.40;;;;;;;-142.75;100.00;74423.25;5080248;28;20057;-66
2023/08/03 07:54:15;;;;;;;8.63;1.48;;;;;;;-142.75;100.00;74407.53;5081272;28;20020;-66
2023/08/03 07:56:41;;;;;;;4.78;1.38;;;;;;;-142.75;100.00;74403.59;5080747;28;20020;-66
2023/08/03 07:59:07;;;;;;;8.40;1.70;;;;;;;-142.75;100.00;74425.22;5079188;28;20020;-65
2023/08/03 08:01:32;;;;;;;7.40;1.35;;;;;;;-142.75;100.00;74452.78;5076731;28;20095;-66
2023/08/03 08:03:58;;;;;;;4.15;1.50;;;;;;;-142.75;100.00;74460.63;5079521;28;20032;-65
2023/08/03 08:06:23;;;;;;;5.80;1.65;;;;;;;-142.75;100.00;74468.50;5083502;28;20020;-65
2023/08/03 08:08:50;;;;;;;12.20;1.70;;;;;;;-142.75;100.00;74470.47;5076474;28;20020;-65
2023/08/03 08:11:17;;;;;;;4.05;1.67;;;;;;;-142.75;100.00;74492.13;5082770;28;20509;-66
2023/08/03 08:13:43;;;;;;;5.78;1.65;;;;;;;-142.75;100.00;74480.31;5078734;28;20065;-65
2023/08/03 08:16:11;;;;;;;5.90;1.42;;;;;;;-142.75;100.00;74476.38;5076904;28;20028;-66
2023/08/03 08:18:37;;;;;;;7.80;1.95;;;;;;;-142.75;100.00;74472.44;5076150;28;20027;-64
2023/08/03 08:21:05;;;;;;;8.75;1.63;;;;;;;-142.75;100.00;74448.84;5080180;28;20028;-64
2023/08/03 08:23:31;;;;;;;4.32;1.52;;;;;;;-142.75;100.00;74452.78;5077401;28;20026;-64
2023/08/03 08:25:57;;;;;;;4.28;1.58;;;;;;;-142.75;100.00;74464.56;5086867;28;20012;-64
2023/08/03 08:28:22;;;;;;;8.23;1.88;;;;;;;-142.75;100.00;74466.53;5086101;28;20114;-64
2023/08/03 08:30:48;;;;;;;5.10;1.60;;;;;;;-142.75;100.00;74440.97;5086677;28;20028;-64
2023/08/03 08:33:15;;;;;;;11.65;3.05;;;;;;;-142.75;100.00;74425.22;5082583;28;20379;-65
2023/08/03 08:35:40;;;;;;;6.32;1.75;;;;;;;-142.75;100.00;74452.78;5069198;28;20030;-64
2023/08/03 08:38:08;;;;;;;9.43;1.73;;;;;;;-142.75;100.00;74448.84;5066869;28;20371;-64
2023/08/03 08:40:38;;;;;;;6.00;2.05;;;;;;;-142.75;100.00;74456.72;5067040;28;20565;-64
2023/08/03 08:43:04;;;;;;;6.68;1.50;;;;;;;-142.75;100.00;74452.78;5068906;28;20047;-64
2023/08/03 08:45:32;;;;;;;4.43;2.08;;;;;;;-142.75;100.00;74415.38;5072187;28;20062;-67
2023/08/03 08:47:58;;;;;;;12.82;2.42;;;;;;;-142.75;100.00;74427.19;5073496;28;20029;-66
2023/08/03 08:50:24;;;;;;;6.82;2.13;;;;;;;-142.75;100.00;74427.19;5069238;28;20017;-65
2023/08/03 08:52:51;;;;;;;6.93;2.08;;;;;;;-142.75;100.00;74419.31;5079464;28;20024;-65
2023/08/03 08:55:34;;;;;;;12.35;1.80;;;;;;;-142.75;100.00;74429.16;5079927;28;20020;-65
2023/08/03 08:58:00;;;;;;;10.52;1.48;;;;;;;-142.75;100.00;74460.63;5075286;28;20016;-65
2023/08/03 09:00:26;;;;;;;9.95;1.98;;;;;;;-142.75;100.00;74437.03;5075952;28;20081;-65
2023/08/03 09:02:56;;;;;;;3.72;1.48;;;;;;;-142.75;100.00;74427.19;5077835;28;20027;-66
2023/08/03 09:05:24;;;;;;;2.70;1.38;;;;;;;-142.75;100.00;74450.81;5077712;28;20418;-66
2023/08/03 09:08:11;;;;;;;7.75;1.70;;;;;;;-142.75;100.00;74446.88;5070985;28;20036;-66
2023/08/03 09:10:51;;;;;;;5.32;1.40;;;;;;;-142.75;100.00;74480.31;5070944;28;20395;-66
2023/08/03 09:13:26;;;;;;;4.97;1.50;;;;;;;-142.75;100.00;74468.50;5070771;28;20254;-66
2023/08/03 09:15:52;;;;;;;6.15;1.35;;;;;;;-142.75;100.00;74500.00;5071376;28;20434;-66
2023/08/03 09:18:19;;;;;;;7.20;1.88;;;;;;;-142.75;100.00;74478.34;5071302;28;20127;-66
2023/08/03 09:20:44;;;;;;;11.85;2.33;;;;;;;-142.75;100.00;74513.75;5082170;28;20028;-65
2023/08/03 09:23:26;;;;;;;8.35;2.00;;;;;;;-142.75;100.00;74444.91;5075936;28;21926;-65
2023/08/03 09:25:52;;;;;;;9.48;2.67;;;;;;;-142.75;100.00;74417.34;5075845;28;20054;-64
2023/08/03 09:28:18;;;;;;;9.57;2.45;;;;;;;-142.75;100.00;74399.66;5077681;28;20043;-65
2023/08/03 09:30:48;;;;;;;19.58;2.63;;;;;;;-142.75;100.00;74366.22;5084714;28;21468;-65
2023/08/03 09:33:15;;;;;;;9.70;2.88;;;;;;;-142.75;100.00;74366.22;5083293;28;20020;-65
2023/08/03 09:35:40;;;;;;;12.45;2.65;;;;;;;-142.75;100.00;74334.72;5071498;28;20034;-65
2023/08/03 09:38:22;;;;;;;10.93;2.83;;;;;;;-142.75;100.00;74322.94;5073465;28;20499;-64
2023/08/03 09:40:50;;;;;;;12.13;2.45;;;;;;;-142.75;100.00;74303.25;5075609;28;20480;-65
2023/08/03 09:43:17;;;;;;;10.40;2.50;;;;;;;-142.75;100.00;74271.78;5077318;28;20025;-65
2023/08/03 09:45:45;;;;;;;10.43;2.47;;;;;;;-142.75;100.00;74265.88;5077909;28;20600;-65
2023/08/03 09:48:11;;;;;;;11.05;2.03;;;;;;;-142.75;100.00;74299.31;5071567;28;20025;-65
2023/08/03 09:50:38;;;;;;;6.35;2.38;;;;;;;-142.75;100.00;74362.28;5071029;28;20117;-65
2023/08/03 09:53:09;;;;;;;10.02;1.70;;;;;;;-142.75;100.00;74415.38;5070189;28;20032;-65
2023/08/03 09:55:42;;;;;;;10.70;2.35;;;;;;;-142.75;100.00;74480.31;5073183;28;20039;-65
2023/08/03 09:58:15;;;;;;;4.53;1.27;;;;;;;-142.75;100.00;74574.75;5072426;28;20032;-64
2023/08/03 10:00:43;;;;;;;4.82;0.75;;;;;;;-142.75;100.00;74543.28;5070063;28;20017;-65
2023/08/03 10:03:11;;;;;;;10.00;1.17;;;;;;;-142.75;100.00;74496.06;5071773;28;20024;-64
2023/08/03 10:05:40;;;;;;;6.00;1.05;;;;;;;-142.75;100.00;74492.13;5073774;28;20020;-64
2023/08/03 10:08:14;;;;;;;6.50;1.27;;;;;;;-142.75;100.00;74460.63;5071253;28;20025;-64
2023/08/03 10:10:44;;;;;;;6.43;1.17;;;;;;;-142.75;100.00;74496.06;5076941;28;20696;-64
2023/08/03 10:13:09;;;;;;;9.07;1.33;;;;;;;-142.75;100.00;74588.53;5083870;28;20642;-61
2023/08/03 10:15:35;;;;;;;6.45;1.20;;;;;;;-142.75;100.00;74649.53;5071573;28;20105;-64
2023/08/03 10:18:01;;;;;;;6.90;1.15;;;;;;;-142.75;100.00;74663.28;5072727;28;20396;-64
2023/08/03 10:20:27;;;;;;;7.88;1.63;;;;;;;-142.75;100.00;74671.16;5083787;28;20060;-64
2023/08/03 10:23:18;;;;;;;4.60;1.17;;;;;;;-142.75;100.00;74675.09;5078336;28;20093;-64
2023/08/03 10:25:57;;;;;;;4.70;1.30;;;;;;;-142.75;100.00;74682.97;5069728;28;20025;-64
2023/08/03 10:28:40;;;;;;;7.10;1.48;;;;;;;-142.75;100.00;74714.44;5068736;28;20070;-64
2023/08/03 10:31:11;;;;;;;3.30;0.77;;;;;;;-142.75;100.00;74726.25;5077574;28;20032;-64
2023/08/03 10:33:49;;;;;;;4.32;0.75;;;;;;;-142.75;100.00;74728.22;5068186;28;20024;-64
2023/08/03 10:36:26;;;;;;;2.72;0.98;;;;;;;-142.75;100.00;74714.44;5087971;28;20395;-64
2023/08/03 10:39:14;;;;;;;3.38;0.77;;;;;;;-142.75;100.00;74726.25;5071803;28;20024;-64
2023/08/03 10:41:51;;;;;;;3.33;0.77;;;;;;;-142.75;100.00;74720.34;5070373;28;20502;-64
2023/08/03 10:44:20;;;;;;;2.45;0.70;;;;;;;-142.75;100.00;74785.28;5073866;28;20153;-64
2023/08/03 10:46:47;;;;;;;2.60;1.25;;;;;;;-142.75;100.00;74816.75;5076347;28;20026;-64
2023/08/03 10:49:22;;;;;;;2.58;1.15;;;;;;;-142.75;100.00;74828.56;5076471;28;20058;-64
2023/08/03 10:52:23;;;;;;;2.88;0.80;;;;;;;-142.75;100.00;74820.69;5069800;28;20066;-64
2023/08/03 10:54:49;;;;;;;6.15;1.08;;;;;;;-142.75;100.00;74846.28;5069672;28;20020;-64
2023/08/03 10:57:19;;;;;;;5.30;1.27;;;;;;;-142.75;100.00;74864.00;5068617;28;20028;-65
2023/08/03 10:59:50;;;;;;;5.75;1.90;;;;;;;-142.75;100.00;74854.16;5069009;28;20052;-64
2023/08/03 11:02:18;;;;;;;5.13;1.10;;;;;;;-142.75;100.00;74877.75;5068880;28;20032;-64
2023/08/03 11:04:45;;;;;;;4.40;1.38;;;;;;;-142.75;100.00;74879.72;5069131;28;20020;-64
2023/08/03 11:07:11;;;;;;;7.43;1.55;;;;;;;-142.75;100.00;74881.69;5068920;28;20020;-65